sensor_id;sensor_type;location;lat;lon;timestamp;temperature;humidity
4356;DHT22;64374;51.482;7.408;2022-12-29T00:01:09;10.70;99.90
4356;DHT22;64374;51.482;7.408;2022-12-29T00:03:37;10.80;99.90
4356;DHT22;64374;51.482;7.408;2022-12-29T00:06:06;10.90;99.90
4356;DHT22;64374;51.482;7.408;2022-12-29T00:08:35;11.00;99.90
4356;DHT22;64374;51.482;7.408;2022-12-29T00:11:11;10.90;99.90
4356;DHT22;64374;51.482;7.408;2022-12-29T00:13:40;10.70;99.90
4356;DHT22;64374;51.482;7.408;2022-12-29T00:16:26;11.20;99.90
4356;DHT22;64374;51.482;7.408;2022-12-29T00:18:55;11.10;99.90
4356;DHT22;64374;51.482;7.408;2022-12-29T00:21:24;11.20;99.90
4356;DHT22;64374;51.482;7.408;2022-12-29T00:24:18;11.20;99.90
4356;DHT22;64374;51.482;7.408;2022-12-29T00:27:11;11.30;99.90
4356;DHT22;64374;51.482;7.408;2022-12-29T00:29:58;11.30;99.90
4356;DHT22;64374;51.482;7.408;2022-12-29T00:32:44;11.20;99.90
4356;DHT22;64374;51.482;7.408;2022-12-29T00:35:33;11.00;99.90
4356;DHT22;64374;51.482;7.408;2022-12-29T00:38:11;11.00;99.90
4356;DHT22;64374;51.482;7.408;2022-12-29T00:41:00;11.00;99.90
4356;DHT22;64374;51.482;7.408;2022-12-29T00:43:46;11.10;99.90
4356;DHT22;64374;51.482;7.408;2022-12-29T00:46:34;11.30;99.90
4356;DHT22;64374;51.482;7.408;2022-12-29T00:49:07;10.90;99.90
4356;DHT22;64374;51.482;7.408;2022-12-29T00:51:56;11.10;99.90
4356;DHT22;64374;51.482;7.408;2022-12-29T00:54:31;11.00;99.90
4356;DHT22;64374;51.482;7.408;2022-12-29T00:57:09;10.90;99.90
4356;DHT22;64374;51.482;7.408;2022-12-29T00:59:38;11.10;99.90
4356;DHT22;64374;51.482;7.408;2022-12-29T01:02:07;11.00;99.90
4356;DHT22;64374;51.482;7.408;2022-12-29T01:04:37;11.20;99.90
4356;DHT22;64374;51.482;7.408;2022-12-29T01:07:06;11.10;99.90
4356;DHT22;64374;51.482;7.408;2022-12-29T01:09:42;11.10;99.90
4356;DHT22;64374;51.482;7.408;2022-12-29T01:12:34;11.40;99.90
4356;DHT22;64374;51.482;7.408;2022-12-29T01:15:13;11.50;99.90
4356;DHT22;64374;51.482;7.408;2022-12-29T01:17:48;11.40;99.90
4356;DHT22;64374;51.482;7.408;2022-12-29T01:20:16;11.20;99.90
4356;DHT22;64374;51.482;7.408;2022-12-29T01:22:45;11.10;99.90
4356;DHT22;64374;51.482;7.408;2022-12-29T01:25:14;11.00;99.90
4356;DHT22;64374;51.482;7.408;2022-12-29T01:27:45;11.00;99.90
4356;DHT22;64374;51.482;7.408;2022-12-29T01:30:16;11.10;99.90
4356;DHT22;64374;51.482;7.408;2022-12-29T01:32:47;11.20;99.90
4356;DHT22;64374;51.482;7.408;2022-12-29T01:35:18;11.20;99.90
4356;DHT22;64374;51.482;7.408;2022-12-29T01:37:46;11.30;99.90
4356;DHT22;64374;51.482;7.408;2022-12-29T01:40:17;11.30;99.90
4356;DHT22;64374;51.482;7.408;2022-12-29T01:42:47;11.20;99.90
4356;DHT22;64374;51.482;7.408;2022-12-29T01:45:17;11.40;99.90
4356;DHT22;64374;51.482;7.408;2022-12-29T01:47:48;11.40;99.90
4356;DHT22;64374;51.482;7.408;2022-12-29T01:50:24;11.50;99.90
4356;DHT22;64374;51.482;7.408;2022-12-29T01:52:56;11.40;99.90
4356;DHT22;64374;51.482;7.408;2022-12-29T01:55:35;11.30;99.90
4356;DHT22;64374;51.482;7.408;2022-12-29T01:58:18;11.20;99.90
4356;DHT22;64374;51.482;7.408;2022-12-29T02:00:51;11.50;99.90
4356;DHT22;64374;51.482;7.408;2022-12-29T02:03:24;11.30;99.90
4356;DHT22;64374;51.482;7.408;2022-12-29T02:05:57;11.20;99.90
4356;DHT22;64374;51.482;7.408;2022-12-29T02:08:28;11.20;99.90
4356;DHT22;64374;51.482;7.408;2022-12-29T02:10:59;11.30;99.90
4356;DHT22;64374;51.482;7.408;2022-12-29T02:13:30;11.50;99.90
4356;DHT22;64374;51.482;7.408;2022-12-29T02:16:06;11.50;99.90
4356;DHT22;64374;51.482;7.408;2022-12-29T02:18:44;11.60;99.90
4356;DHT22;64374;51.482;7.408;2022-12-29T02:21:48;11.70;99.90
4356;DHT22;64374;51.482;7.408;2022-12-29T02:24:53;11.70;99.90
4356;DHT22;64374;51.482;7.408;2022-12-29T02:27:47;11.80;99.90
4356;DHT22;64374;51.482;7.408;2022-12-29T02:30:42;11.70;99.90
4356;DHT22;64374;51.482;7.408;2022-12-29T02:33:21;11.40;99.90
4356;DHT22;64374;51.482;7.408;2022-12-29T02:35:56;11.40;99.90
4356;DHT22;64374;51.482;7.408;2022-12-29T02:38:42;11.50;99.90
4356;DHT22;64374;51.482;7.408;2022-12-29T02:41:21;11.40;99.90
4356;DHT22;64374;51.482;7.408;2022-12-29T02:43:57;11.60;99.90
4356;DHT22;64374;51.482;7.408;2022-12-29T02:46:35;11.60;99.90
4356;DHT22;64374;51.482;7.408;2022-12-29T02:49:10;11.50;99.90
4356;DHT22;64374;51.482;7.408;2022-12-29T02:51:50;11.50;99.90
4356;DHT22;64374;51.482;7.408;2022-12-29T02:54:24;11.70;99.90
4356;DHT22;64374;51.482;7.408;2022-12-29T02:57:15;11.70;99.90
4356;DHT22;64374;51.482;7.408;2022-12-29T02:59:48;11.50;99.90
4356;DHT22;64374;51.482;7.408;2022-12-29T03:02:30;11.50;99.90
4356;DHT22;64374;51.482;7.408;2022-12-29T03:05:22;11.80;99.90
4356;DHT22;64374;51.482;7.408;2022-12-29T03:08:01;11.80;99.90
4356;DHT22;64374;51.482;7.408;2022-12-29T03:10:37;11.70;99.90
4356;DHT22;64374;51.482;7.408;2022-12-29T03:13:20;11.70;99.90
4356;DHT22;64374;51.482;7.408;2022-12-29T03:16:17;11.90;99.90
4356;DHT22;64374;51.482;7.408;2022-12-29T03:18:59;11.70;99.90
4356;DHT22;64374;51.482;7.408;2022-12-29T03:21:36;11.90;99.90
4356;DHT22;64374;51.482;7.408;2022-12-29T03:24:32;11.60;99.90
4356;DHT22;64374;51.482;7.408;2022-12-29T03:27:05;11.80;99.90
4356;DHT22;64374;51.482;7.408;2022-12-29T03:29:41;11.70;99.90
4356;DHT22;64374;51.482;7.408;2022-12-29T03:32:12;11.90;99.90
4356;DHT22;64374;51.482;7.408;2022-12-29T03:34:59;12.20;99.90
4356;DHT22;64374;51.482;7.408;2022-12-29T03:37:31;11.90;99.90
4356;DHT22;64374;51.482;7.408;2022-12-29T03:40:08;12.10;99.90
4356;DHT22;64374;51.482;7.408;2022-12-29T03:42:40;12.30;99.90
4356;DHT22;64374;51.482;7.408;2022-12-29T03:45:12;12.30;99.90
4356;DHT22;64374;51.482;7.408;2022-12-29T03:47:40;12.40;99.90
4356;DHT22;64374;51.482;7.408;2022-12-29T03:50:16;12.50;99.90
4356;DHT22;64374;51.482;7.408;2022-12-29T03:52:51;12.30;99.90
4356;DHT22;64374;51.482;7.408;2022-12-29T03:55:27;12.20;99.90
4356;DHT22;64374;51.482;7.408;2022-12-29T03:57:56;12.10;99.90
4356;DHT22;64374;51.482;7.408;2022-12-29T04:00:45;11.70;99.90
4356;DHT22;64374;51.482;7.408;2022-12-29T04:03:13;11.70;99.90
4356;DHT22;64374;51.482;7.408;2022-12-29T04:05:48;11.40;99.90
4356;DHT22;64374;51.482;7.408;2022-12-29T04:08:17;11.30;99.90
4356;DHT22;64374;51.482;7.408;2022-12-29T04:10:48;11.00;99.90
4356;DHT22;64374;51.482;7.408;2022-12-29T04:13:22;11.30;99.90
4356;DHT22;64374;51.482;7.408;2022-12-29T04:15:51;11.40;99.90
4356;DHT22;64374;51.482;7.408;2022-12-29T04:18:22;11.50;99.90
4356;DHT22;64374;51.482;7.408;2022-12-29T04:20:52;11.40;99.90
4356;DHT22;64374;51.482;7.408;2022-12-29T04:23:35;11.20;99.90
4356;DHT22;64374;51.482;7.408;2022-12-29T04:26:09;11.40;99.90
4356;DHT22;64374;51.482;7.408;2022-12-29T04:28:58;11.30;99.90
4356;DHT22;64374;51.482;7.408;2022-12-29T04:31:57;11.30;99.90
4356;DHT22;64374;51.482;7.408;2022-12-29T04:34:27;11.40;99.90
4356;DHT22;64374;51.482;7.408;2022-12-29T04:36:57;11.50;99.90
4356;DHT22;64374;51.482;7.408;2022-12-29T04:39:33;11.50;99.90
4356;DHT22;64374;51.482;7.408;2022-12-29T04:42:02;11.70;99.90
4356;DHT22;64374;51.482;7.408;2022-12-29T04:44:54;11.90;99.90
4356;DHT22;64374;51.482;7.408;2022-12-29T04:47:42;11.90;99.90
4356;DHT22;64374;51.482;7.408;2022-12-29T04:50:32;11.90;99.90
4356;DHT22;64374;51.482;7.408;2022-12-29T04:53:14;11.90;99.90
4356;DHT22;64374;51.482;7.408;2022-12-29T04:55:43;12.00;99.90
4356;DHT22;64374;51.482;7.408;2022-12-29T04:58:12;11.90;99.90
4356;DHT22;64374;51.482;7.408;2022-12-29T05:00:55;11.90;99.90
4356;DHT22;64374;51.482;7.408;2022-12-29T05:03:29;11.80;99.90
4356;DHT22;64374;51.482;7.408;2022-12-29T05:06:00;11.90;99.90
4356;DHT22;64374;51.482;7.408;2022-12-29T05:08:30;12.20;99.90
4356;DHT22;64374;51.482;7.408;2022-12-29T05:11:01;11.90;99.90
4356;DHT22;64374;51.482;7.408;2022-12-29T05:13:33;12.10;99.90
4356;DHT22;64374;51.482;7.408;2022-12-29T05:16:02;12.10;99.90
4356;DHT22;64374;51.482;7.408;2022-12-29T05:18:33;12.00;99.90
4356;DHT22;64374;51.482;7.408;2022-12-29T05:21:04;12.00;99.90
4356;DHT22;64374;51.482;7.408;2022-12-29T05:23:36;12.00;99.90
4356;DHT22;64374;51.482;7.408;2022-12-29T05:26:06;12.10;99.90
4356;DHT22;64374;51.482;7.408;2022-12-29T05:28:55;12.10;99.90
4356;DHT22;64374;51.482;7.408;2022-12-29T05:31:24;12.20;99.90
4356;DHT22;64374;51.482;7.408;2022-12-29T05:33:53;12.10;99.90
4356;DHT22;64374;51.482;7.408;2022-12-29T05:36:21;12.10;99.90
4356;DHT22;64374;51.482;7.408;2022-12-29T05:39:05;12.20;99.90
4356;DHT22;64374;51.482;7.408;2022-12-29T05:41:35;11.90;99.90
4356;DHT22;64374;51.482;7.408;2022-12-29T05:44:28;12.00;99.90
4356;DHT22;64374;51.482;7.408;2022-12-29T05:47:26;12.00;99.90
4356;DHT22;64374;51.482;7.408;2022-12-29T05:50:13;12.00;99.90
4356;DHT22;64374;51.482;7.408;2022-12-29T05:53:11;12.20;99.90
4356;DHT22;64374;51.482;7.408;2022-12-29T05:55:52;12.30;99.90
4356;DHT22;64374;51.482;7.408;2022-12-29T05:58:24;12.20;99.90
4356;DHT22;64374;51.482;7.408;2022-12-29T06:00:52;12.20;99.90
4356;DHT22;64374;51.482;7.408;2022-12-29T06:03:23;12.00;99.90
4356;DHT22;64374;51.482;7.408;2022-12-29T06:05:54;12.00;99.90
4356;DHT22;64374;51.482;7.408;2022-12-29T06:08:22;12.20;99.90
4356;DHT22;64374;51.482;7.408;2022-12-29T06:10:55;12.10;99.90
4356;DHT22;64374;51.482;7.408;2022-12-29T06:13:31;12.10;99.90
4356;DHT22;64374;51.482;7.408;2022-12-29T06:16:02;12.10;99.90
4356;DHT22;64374;51.482;7.408;2022-12-29T06:18:31;12.30;99.90
4356;DHT22;64374;51.482;7.408;2022-12-29T06:21:00;12.30;99.90
4356;DHT22;64374;51.482;7.408;2022-12-29T06:23:29;12.30;99.90
4356;DHT22;64374;51.482;7.408;2022-12-29T06:25:59;12.50;99.90
4356;DHT22;64374;51.482;7.408;2022-12-29T06:28:30;12.40;99.90
4356;DHT22;64374;51.482;7.408;2022-12-29T06:30:58;12.30;99.90
4356;DHT22;64374;51.482;7.408;2022-12-29T06:33:30;12.10;99.90
4356;DHT22;64374;51.482;7.408;2022-12-29T06:35:59;12.30;99.90
4356;DHT22;64374;51.482;7.408;2022-12-29T06:38:31;12.10;99.90
4356;DHT22;64374;51.482;7.408;2022-12-29T06:41:02;12.10;99.90
4356;DHT22;64374;51.482;7.408;2022-12-29T06:43:34;12.20;99.90
4356;DHT22;64374;51.482;7.408;2022-12-29T06:46:21;12.20;99.90
4356;DHT22;64374;51.482;7.408;2022-12-29T06:48:51;12.40;99.90
4356;DHT22;64374;51.482;7.408;2022-12-29T06:51:23;12.30;99.90
4356;DHT22;64374;51.482;7.408;2022-12-29T06:53:53;12.20;99.90
4356;DHT22;64374;51.482;7.408;2022-12-29T06:56:23;12.30;99.90
4356;DHT22;64374;51.482;7.408;2022-12-29T06:58:51;12.30;99.90
4356;DHT22;64374;51.482;7.408;2022-12-29T07:01:20;12.20;99.90
4356;DHT22;64374;51.482;7.408;2022-12-29T07:03:48;12.10;99.90
4356;DHT22;64374;51.482;7.408;2022-12-29T07:06:17;12.10;99.90
4356;DHT22;64374;51.482;7.408;2022-12-29T07:08:46;12.40;99.90
4356;DHT22;64374;51.482;7.408;2022-12-29T07:11:29;12.20;99.90
4356;DHT22;64374;51.482;7.408;2022-12-29T07:13:59;12.00;99.90
4356;DHT22;64374;51.482;7.408;2022-12-29T07:16:28;12.10;99.90
4356;DHT22;64374;51.482;7.408;2022-12-29T07:18:57;12.10;99.90
4356;DHT22;64374;51.482;7.408;2022-12-29T07:21:27;12.10;99.90
4356;DHT22;64374;51.482;7.408;2022-12-29T07:23:58;12.10;99.90
4356;DHT22;64374;51.482;7.408;2022-12-29T07:26:30;11.90;99.90
4356;DHT22;64374;51.482;7.408;2022-12-29T07:29:15;11.90;99.90
4356;DHT22;64374;51.482;7.408;2022-12-29T07:31:44;12.00;99.90
4356;DHT22;64374;51.482;7.408;2022-12-29T07:34:13;11.90;99.90
4356;DHT22;64374;51.482;7.408;2022-12-29T07:36:41;12.00;99.90
4356;DHT22;64374;51.482;7.408;2022-12-29T07:39:12;12.10;99.90
4356;DHT22;64374;51.482;7.408;2022-12-29T07:41:42;12.10;99.90
4356;DHT22;64374;51.482;7.408;2022-12-29T07:44:17;11.90;99.90
4356;DHT22;64374;51.482;7.408;2022-12-29T07:47:07;12.00;99.90
4356;DHT22;64374;51.482;7.408;2022-12-29T07:49:35;11.90;99.90
4356;DHT22;64374;51.482;7.408;2022-12-29T07:52:06;12.00;99.90
4356;DHT22;64374;51.482;7.408;2022-12-29T07:54:37;11.80;99.90
4356;DHT22;64374;51.482;7.408;2022-12-29T07:57:13;11.90;99.90
4356;DHT22;64374;51.482;7.408;2022-12-29T07:59:42;11.80;99.90
4356;DHT22;64374;51.482;7.408;2022-12-29T08:02:11;11.80;99.90
4356;DHT22;64374;51.482;7.408;2022-12-29T08:04:39;11.70;99.90
4356;DHT22;64374;51.482;7.408;2022-12-29T08:07:10;11.70;99.90
4356;DHT22;64374;51.482;7.408;2022-12-29T08:09:41;11.70;99.90
4356;DHT22;64374;51.482;7.408;2022-12-29T08:12:10;11.80;99.90
4356;DHT22;64374;51.482;7.408;2022-12-29T08:14:40;12.00;99.90
4356;DHT22;64374;51.482;7.408;2022-12-29T08:17:08;11.90;99.90
4356;DHT22;64374;51.482;7.408;2022-12-29T08:19:37;12.20;99.90
4356;DHT22;64374;51.482;7.408;2022-12-29T08:22:23;11.90;99.90
4356;DHT22;64374;51.482;7.408;2022-12-29T08:24:52;11.80;99.90
4356;DHT22;64374;51.482;7.408;2022-12-29T08:27:28;11.80;99.90
4356;DHT22;64374;51.482;7.408;2022-12-29T08:30:01;11.90;99.90
4356;DHT22;64374;51.482;7.408;2022-12-29T08:32:29;12.10;99.90
4356;DHT22;64374;51.482;7.408;2022-12-29T08:34:58;12.00;99.90
4356;DHT22;64374;51.482;7.408;2022-12-29T08:37:26;11.90;99.90
4356;DHT22;64374;51.482;7.408;2022-12-29T08:39:57;11.90;99.90
4356;DHT22;64374;51.482;7.408;2022-12-29T08:42:27;11.70;99.90
4356;DHT22;64374;51.482;7.408;2022-12-29T08:45:19;11.70;99.90
4356;DHT22;64374;51.482;7.408;2022-12-29T08:47:47;11.70;99.90
4356;DHT22;64374;51.482;7.408;2022-12-29T08:50:18;11.80;99.90
4356;DHT22;64374;51.482;7.408;2022-12-29T08:52:47;11.90;99.90
4356;DHT22;64374;51.482;7.408;2022-12-29T08:55:29;11.90;99.90
4356;DHT22;64374;51.482;7.408;2022-12-29T08:58:03;11.90;99.90
4356;DHT22;64374;51.482;7.408;2022-12-29T09:00:42;12.30;99.90
4356;DHT22;64374;51.482;7.408;2022-12-29T09:03:11;12.00;99.90
4356;DHT22;64374;51.482;7.408;2022-12-29T09:05:39;12.00;99.90
4356;DHT22;64374;51.482;7.408;2022-12-29T09:08:16;12.00;99.90
4356;DHT22;64374;51.482;7.408;2022-12-29T09:10:52;11.80;99.90
4356;DHT22;64374;51.482;7.408;2022-12-29T09:13:21;11.60;99.90
4356;DHT22;64374;51.482;7.408;2022-12-29T09:15:59;11.50;99.90
4356;DHT22;64374;51.482;7.408;2022-12-29T09:18:29;11.30;99.90
4356;DHT22;64374;51.482;7.408;2022-12-29T09:21:01;11.30;99.90
4356;DHT22;64374;51.482;7.408;2022-12-29T09:23:33;11.30;99.90
4356;DHT22;64374;51.482;7.408;2022-12-29T09:26:02;11.10;99.90
4356;DHT22;64374;51.482;7.408;2022-12-29T09:28:34;11.10;99.90
4356;DHT22;64374;51.482;7.408;2022-12-29T09:31:07;11.10;99.90
4356;DHT22;64374;51.482;7.408;2022-12-29T09:33:36;11.10;99.90
4356;DHT22;64374;51.482;7.408;2022-12-29T09:36:08;11.20;99.90
4356;DHT22;64374;51.482;7.408;2022-12-29T09:38:39;11.20;99.90
4356;DHT22;64374;51.482;7.408;2022-12-29T09:41:15;11.30;99.90
4356;DHT22;64374;51.482;7.408;2022-12-29T09:44:05;11.30;99.90
4356;DHT22;64374;51.482;7.408;2022-12-29T09:46:39;11.50;99.90
4356;DHT22;64374;51.482;7.408;2022-12-29T09:49:16;11.60;99.90
4356;DHT22;64374;51.482;7.408;2022-12-29T09:51:51;11.50;99.90
4356;DHT22;64374;51.482;7.408;2022-12-29T09:54:39;11.70;99.90
4356;DHT22;64374;51.482;7.408;2022-12-29T09:57:21;11.60;99.90
4356;DHT22;64374;51.482;7.408;2022-12-29T09:59:55;11.50;99.90
4356;DHT22;64374;51.482;7.408;2022-12-29T10:02:34;11.60;99.90
4356;DHT22;64374;51.482;7.408;2022-12-29T10:05:20;11.50;99.90
4356;DHT22;64374;51.482;7.408;2022-12-29T10:08:03;11.60;99.90
4356;DHT22;64374;51.482;7.408;2022-12-29T10:10:50;11.60;99.90
4356;DHT22;64374;51.482;7.408;2022-12-29T10:13:36;11.60;99.90
4356;DHT22;64374;51.482;7.408;2022-12-29T10:16:16;11.40;99.90
4356;DHT22;64374;51.482;7.408;2022-12-29T10:19:11;11.60;99.90
4356;DHT22;64374;51.482;7.408;2022-12-29T10:21:55;11.70;99.90
4356;DHT22;64374;51.482;7.408;2022-12-29T10:24:27;11.70;99.90
4356;DHT22;64374;51.482;7.408;2022-12-29T10:27:01;11.90;99.90
4356;DHT22;64374;51.482;7.408;2022-12-29T10:29:33;11.60;99.90
4356;DHT22;64374;51.482;7.408;2022-12-29T10:32:28;11.50;99.90
4356;DHT22;64374;51.482;7.408;2022-12-29T10:35:03;11.70;99.90
4356;DHT22;64374;51.482;7.408;2022-12-29T10:37:40;11.90;99.90
4356;DHT22;64374;51.482;7.408;2022-12-29T10:40:18;11.90;99.90
4356;DHT22;64374;51.482;7.408;2022-12-29T10:42:52;12.00;99.90
4356;DHT22;64374;51.482;7.408;2022-12-29T10:45:25;11.70;99.90
4356;DHT22;64374;51.482;7.408;2022-12-29T10:48:01;11.60;99.90
4356;DHT22;64374;51.482;7.408;2022-12-29T10:50:34;11.50;99.90
4356;DHT22;64374;51.482;7.408;2022-12-29T10:53:05;11.70;99.90
4356;DHT22;64374;51.482;7.408;2022-12-29T10:55:35;11.60;99.90
4356;DHT22;64374;51.482;7.408;2022-12-29T10:58:06;11.70;99.90
4356;DHT22;64374;51.482;7.408;2022-12-29T11:00:36;11.80;99.90
4356;DHT22;64374;51.482;7.408;2022-12-29T11:03:40;11.70;99.90
4356;DHT22;64374;51.482;7.408;2022-12-29T11:06:17;11.80;99.90
4356;DHT22;64374;51.482;7.408;2022-12-29T11:08:54;11.80;99.90
4356;DHT22;64374;51.482;7.408;2022-12-29T11:11:26;11.80;99.90
4356;DHT22;64374;51.482;7.408;2022-12-29T11:13:59;11.90;99.90
4356;DHT22;64374;51.482;7.408;2022-12-29T11:16:34;11.50;99.90
4356;DHT22;64374;51.482;7.408;2022-12-29T11:19:05;11.60;99.90
4356;DHT22;64374;51.482;7.408;2022-12-29T11:21:37;11.60;99.90
4356;DHT22;64374;51.482;7.408;2022-12-29T11:24:20;11.60;99.90
4356;DHT22;64374;51.482;7.408;2022-12-29T11:26:50;11.60;99.90
4356;DHT22;64374;51.482;7.408;2022-12-29T11:29:25;11.60;99.90
4356;DHT22;64374;51.482;7.408;2022-12-29T11:31:55;11.60;99.90
4356;DHT22;64374;51.482;7.408;2022-12-29T11:34:27;11.60;99.90
4356;DHT22;64374;51.482;7.408;2022-12-29T11:37:02;11.60;99.90
4356;DHT22;64374;51.482;7.408;2022-12-29T11:39:34;11.80;99.90
4356;DHT22;64374;51.482;7.408;2022-12-29T11:42:06;11.70;99.90
4356;DHT22;64374;51.482;7.408;2022-12-29T11:44:43;11.70;99.90
4356;DHT22;64374;51.482;7.408;2022-12-29T11:47:21;11.60;99.90
4356;DHT22;64374;51.482;7.408;2022-12-29T11:49:54;11.60;99.90
4356;DHT22;64374;51.482;7.408;2022-12-29T11:52:27;11.50;99.90
4356;DHT22;64374;51.482;7.408;2022-12-29T11:54:57;11.50;99.90
4356;DHT22;64374;51.482;7.408;2022-12-29T11:57:27;11.60;99.90
4356;DHT22;64374;51.482;7.408;2022-12-29T11:59:59;11.70;99.90
4356;DHT22;64374;51.482;7.408;2022-12-29T12:02:45;11.60;99.90
4356;DHT22;64374;51.482;7.408;2022-12-29T12:05:22;11.70;99.90
4356;DHT22;64374;51.482;7.408;2022-12-29T12:08:03;11.70;99.90
4356;DHT22;64374;51.482;7.408;2022-12-29T12:10:40;11.50;99.90
4356;DHT22;64374;51.482;7.408;2022-12-29T12:13:25;11.50;99.90
4356;DHT22;64374;51.482;7.408;2022-12-29T12:16:00;11.50;99.90
4356;DHT22;64374;51.482;7.408;2022-12-29T12:18:37;11.40;99.90
4356;DHT22;64374;51.482;7.408;2022-12-29T12:21:13;11.60;99.90
4356;DHT22;64374;51.482;7.408;2022-12-29T12:24:19;11.40;99.90
4356;DHT22;64374;51.482;7.408;2022-12-29T12:26:57;11.40;99.90
4356;DHT22;64374;51.482;7.408;2022-12-29T12:29:34;11.60;99.90
4356;DHT22;64374;51.482;7.408;2022-12-29T12:32:11;11.40;99.90
4356;DHT22;64374;51.482;7.408;2022-12-29T12:34:43;11.50;99.90
4356;DHT22;64374;51.482;7.408;2022-12-29T12:40:27;11.50;99.90
4356;DHT22;64374;51.482;7.408;2022-12-29T12:43:06;11.50;99.90
4356;DHT22;64374;51.482;7.408;2022-12-29T12:45:48;11.40;99.90
4356;DHT22;64374;51.482;7.408;2022-12-29T12:48:43;11.40;99.90
4356;DHT22;64374;51.482;7.408;2022-12-29T12:51:19;11.40;99.90
4356;DHT22;64374;51.482;7.408;2022-12-29T12:54:08;11.40;99.90
4356;DHT22;64374;51.482;7.408;2022-12-29T12:56:57;11.30;99.90
4356;DHT22;64374;51.482;7.408;2022-12-29T12:59:37;11.50;99.90
4356;DHT22;64374;51.482;7.408;2022-12-29T13:02:19;11.60;99.90
4356;DHT22;64374;51.482;7.408;2022-12-29T13:05:03;11.60;99.90
4356;DHT22;64374;51.482;7.408;2022-12-29T13:07:45;11.50;99.90
4356;DHT22;64374;51.482;7.408;2022-12-29T13:10:35;11.60;99.90
4356;DHT22;64374;51.482;7.408;2022-12-29T13:13:23;11.60;99.90
4356;DHT22;64374;51.482;7.408;2022-12-29T13:16:03;11.60;99.90
4356;DHT22;64374;51.482;7.408;2022-12-29T13:18:48;11.60;99.90
4356;DHT22;64374;51.482;7.408;2022-12-29T13:21:33;11.50;99.90
4356;DHT22;64374;51.482;7.408;2022-12-29T13:24:09;11.60;99.90
4356;DHT22;64374;51.482;7.408;2022-12-29T13:26:49;11.50;99.90
4356;DHT22;64374;51.482;7.408;2022-12-29T13:29:32;11.30;99.90
4356;DHT22;64374;51.482;7.408;2022-12-29T13:32:32;11.30;99.90
4356;DHT22;64374;51.482;7.408;2022-12-29T13:35:13;11.40;99.90
4356;DHT22;64374;51.482;7.408;2022-12-29T13:37:52;11.30;99.90
4356;DHT22;64374;51.482;7.408;2022-12-29T13:40:24;11.60;99.90
4356;DHT22;64374;51.482;7.408;2022-12-29T13:42:55;11.40;99.90
4356;DHT22;64374;51.482;7.408;2022-12-29T13:45:29;11.30;99.90
4356;DHT22;64374;51.482;7.408;2022-12-29T13:48:03;11.40;99.90
4356;DHT22;64374;51.482;7.408;2022-12-29T13:50:41;11.50;99.90
4356;DHT22;64374;51.482;7.408;2022-12-29T13:53:21;11.60;99.90
4356;DHT22;64374;51.482;7.408;2022-12-29T13:56:00;11.50;99.90
4356;DHT22;64374;51.482;7.408;2022-12-29T13:58:37;11.60;99.90
4356;DHT22;64374;51.482;7.408;2022-12-29T14:01:13;11.40;99.90
4356;DHT22;64374;51.482;7.408;2022-12-29T14:03:48;11.50;99.90
4356;DHT22;64374;51.482;7.408;2022-12-29T14:06:25;11.30;99.90
4356;DHT22;64374;51.482;7.408;2022-12-29T14:08:55;11.50;99.90
4356;DHT22;64374;51.482;7.408;2022-12-29T14:11:31;11.40;99.90
4356;DHT22;64374;51.482;7.408;2022-12-29T14:14:11;11.30;99.90
4356;DHT22;64374;51.482;7.408;2022-12-29T14:16:42;11.30;99.90
4356;DHT22;64374;51.482;7.408;2022-12-29T14:19:15;11.50;99.90
4356;DHT22;64374;51.482;7.408;2022-12-29T14:21:51;11.50;99.90
4356;DHT22;64374;51.482;7.408;2022-12-29T14:24:41;11.40;99.90
4356;DHT22;64374;51.482;7.408;2022-12-29T14:27:53;11.30;99.90
4356;DHT22;64374;51.482;7.408;2022-12-29T14:30:58;11.40;99.90
4356;DHT22;64374;51.482;7.408;2022-12-29T14:33:30;11.20;99.90
4356;DHT22;64374;51.482;7.408;2022-12-29T14:36:26;11.40;99.90
4356;DHT22;64374;51.482;7.408;2022-12-29T14:39:04;11.30;99.90
4356;DHT22;64374;51.482;7.408;2022-12-29T14:41:39;11.30;99.90
4356;DHT22;64374;51.482;7.408;2022-12-29T14:44:17;11.40;99.90
4356;DHT22;64374;51.482;7.408;2022-12-29T14:46:56;11.40;99.90
4356;DHT22;64374;51.482;7.408;2022-12-29T14:49:29;11.20;99.90
4356;DHT22;64374;51.482;7.408;2022-12-29T14:52:15;11.30;99.90
4356;DHT22;64374;51.482;7.408;2022-12-29T14:54:52;11.20;99.90
4356;DHT22;64374;51.482;7.408;2022-12-29T14:57:35;11.20;99.90
4356;DHT22;64374;51.482;7.408;2022-12-29T15:00:14;11.40;99.90
4356;DHT22;64374;51.482;7.408;2022-12-29T15:02:49;11.40;99.90
4356;DHT22;64374;51.482;7.408;2022-12-29T15:05:35;11.40;99.90
4356;DHT22;64374;51.482;7.408;2022-12-29T15:08:05;11.20;99.90
4356;DHT22;64374;51.482;7.408;2022-12-29T15:10:43;11.30;99.90
4356;DHT22;64374;51.482;7.408;2022-12-29T15:13:16;11.40;99.90
4356;DHT22;64374;51.482;7.408;2022-12-29T15:15:48;11.30;99.90
4356;DHT22;64374;51.482;7.408;2022-12-29T15:18:24;11.50;99.90
4356;DHT22;64374;51.482;7.408;2022-12-29T15:20:59;11.60;99.90
4356;DHT22;64374;51.482;7.408;2022-12-29T15:23:30;11.50;99.90
4356;DHT22;64374;51.482;7.408;2022-12-29T15:26:02;11.60;99.90
4356;DHT22;64374;51.482;7.408;2022-12-29T15:28:38;11.50;99.90
4356;DHT22;64374;51.482;7.408;2022-12-29T15:31:12;11.30;99.90
4356;DHT22;64374;51.482;7.408;2022-12-29T15:33:43;11.20;99.90
4356;DHT22;64374;51.482;7.408;2022-12-29T15:36:21;11.20;99.90
4356;DHT22;64374;51.482;7.408;2022-12-29T15:38:54;11.10;99.90
4356;DHT22;64374;51.482;7.408;2022-12-29T15:41:26;11.20;99.90
4356;DHT22;64374;51.482;7.408;2022-12-29T15:44:06;11.20;99.90
4356;DHT22;64374;51.482;7.408;2022-12-29T15:46:38;11.30;99.90
4356;DHT22;64374;51.482;7.408;2022-12-29T15:49:08;11.30;99.90
4356;DHT22;64374;51.482;7.408;2022-12-29T15:51:39;11.40;99.90
4356;DHT22;64374;51.482;7.408;2022-12-29T15:54:15;11.10;99.90
4356;DHT22;64374;51.482;7.408;2022-12-29T15:56:51;11.30;99.90
4356;DHT22;64374;51.482;7.408;2022-12-29T15:59:25;11.40;99.90
4356;DHT22;64374;51.482;7.408;2022-12-29T16:01:54;11.60;99.90
4356;DHT22;64374;51.482;7.408;2022-12-29T16:04:24;11.20;99.90
4356;DHT22;64374;51.482;7.408;2022-12-29T16:07:00;11.40;99.90
4356;DHT22;64374;51.482;7.408;2022-12-29T16:09:31;11.20;99.90
4356;DHT22;64374;51.482;7.408;2022-12-29T16:12:01;11.00;99.90
4356;DHT22;64374;51.482;7.408;2022-12-29T16:14:33;11.10;99.90
4356;DHT22;64374;51.482;7.408;2022-12-29T16:17:13;11.20;99.90
4356;DHT22;64374;51.482;7.408;2022-12-29T16:19:49;11.00;99.90
4356;DHT22;64374;51.482;7.408;2022-12-29T16:22:32;11.20;99.90
4356;DHT22;64374;51.482;7.408;2022-12-29T16:25:04;11.10;99.90
4356;DHT22;64374;51.482;7.408;2022-12-29T16:27:37;11.10;99.90
4356;DHT22;64374;51.482;7.408;2022-12-29T16:30:16;11.00;99.90
4356;DHT22;64374;51.482;7.408;2022-12-29T16:32:56;11.00;99.90
4356;DHT22;64374;51.482;7.408;2022-12-29T16:35:26;10.80;99.90
4356;DHT22;64374;51.482;7.408;2022-12-29T16:38:14;10.90;99.90
4356;DHT22;64374;51.482;7.408;2022-12-29T16:40:53;10.90;99.90
4356;DHT22;64374;51.482;7.408;2022-12-29T16:43:24;11.00;99.90
4356;DHT22;64374;51.482;7.408;2022-12-29T16:48:55;11.00;99.90